Time;durP1;ratioP1;P1;durP2;ratioP2;P2;SDS_P1;SDS_P2;PMS_P1;PMS_P2;Temp;Humidity;BMP_temperature;BMP_pressure;BME280_temperature;BME280_humidity;BME280_pressure;Samples;Min_cycle;Max_cycle;Signal;HPM_P1;HPM_P2
2022/04/03 00:00:10;;;;;;;10.15;9.05;;;;;;;;;;506616;29;1566;-83
2022/04/03 00:00:25;;;;;;;10.25;8.93;;;;;;;;;;506525;29;1503;-83
2022/04/03 00:00:41;;;;;;;10.27;9.00;;;;;;;;;;509027;29;1768;-83
2022/04/03 00:00:57;;;;;;;10.47;9.37;;;;;;;;;;510146;29;1419;-84
2022/04/03 00:01:13;;;;;;;10.57;9.23;;;;;;;;;;510159;29;1445;-84
2022/04/03 00:01:29;;;;;;;9.77;8.77;;;;;;;;;;508385;29;1588;-84
2022/04/03 00:01:44;;;;;;;9.38;8.43;;;;;;;;;;508094;29;1540;-84
2022/04/03 00:02:00;;;;;;;10.37;8.40;;;;;;;;;;510010;29;1536;-84
2022/04/03 00:02:15;;;;;;;10.45;8.30;;;;;;;;;;512158;28;1511;-84
2022/04/03 00:02:32;;;;;;;9.23;8.10;;;;;;;;;;510245;29;1620;-83
2022/04/03 00:02:48;;;;;;;10.35;8.60;;;;;;;;;;512225;28;1508;-84
2022/04/03 00:03:04;;;;;;;10.38;8.60;;;;;;;;;;512359;28;1426;-83
2022/04/03 00:03:19;;;;;;;9.60;7.95;;;;;;;;;;512737;28;1594;-84
2022/04/03 00:03:35;;;;;;;8.87;7.97;;;;;;;;;;513400;28;1461;-84
2022/04/03 00:03:50;;;;;;;9.38;8.23;;;;;;;;;;514020;28;1586;-84
2022/04/03 00:04:06;;;;;;;9.13;8.10;;;;;;;;;;512350;28;1429;-84
2022/04/03 00:04:23;;;;;;;9.40;8.27;;;;;;;;;;512897;28;1509;-83
2022/04/03 00:04:38;;;;;;;9.60;8.57;;;;;;;;;;514495;28;1476;-84
2022/04/03 00:04:54;;;;;;;9.30;8.37;;;;;;;;;;513772;28;1486;-84
2022/04/03 00:05:09;;;;;;;9.10;8.05;;;;;;;;;;513900;28;1531;-84
2022/04/03 00:05:24;;;;;;;9.77;8.07;;;;;;;;;;513778;28;1919;-84
2022/04/03 00:05:43;;;;;;;9.75;8.25;;;;;;;;;;511600;28;1430;-84
2022/04/03 00:05:58;;;;;;;9.82;8.07;;;;;;;;;;509530;29;1405;-83
2022/04/03 00:06:14;;;;;;;9.32;8.00;;;;;;;;;;508416;29;1673;-84
2022/04/03 00:06:29;;;;;;;9.13;8.03;;;;;;;;;;507842;29;1392;-84
2022/04/03 00:06:44;;;;;;;9.07;8.10;;;;;;;;;;506540;29;1471;-84
2022/04/03 00:07:00;;;;;;;8.85;7.95;;;;;;;;;;506462;29;1439;-84
2022/04/03 00:07:16;;;;;;;9.05;7.88;;;;;;;;;;506546;29;1590;-84
2022/04/03 00:07:32;;;;;;;9.97;7.93;;;;;;;;;;507436;29;1447;-84
2022/04/03 00:07:48;;;;;;;9.73;8.02;;;;;;;;;;509073;29;1647;-84
2022/04/03 00:08:04;;;;;;;9.37;8.10;;;;;;;;;;508883;29;1529;-84
2022/04/03 00:08:19;;;;;;;9.55;8.10;;;;;;;;;;511120;28;1491;-84
2022/04/03 00:08:35;;;;;;;9.55;8.15;;;;;;;;;;512576;28;1420;-83
2022/04/03 00:08:50;;;;;;;10.23;8.33;;;;;;;;;;514570;28;1662;-84
2022/04/03 00:09:06;;;;;;;9.95;8.55;;;;;;;;;;514107;28;1531;-83
2022/04/03 00:09:21;;;;;;;9.43;8.37;;;;;;;;;;514737;28;1464;-84
2022/04/03 00:09:37;;;;;;;9.40;8.30;;;;;;;;;;511831;28;1512;-84
2022/04/03 00:09:52;;;;;;;9.30;8.10;;;;;;;;;;514500;28;1536;-84
2022/04/03 00:10:08;;;;;;;9.82;8.07;;;;;;;;;;512872;28;1515;-83
2022/04/03 00:10:24;;;;;;;10.00;8.10;;;;;;;;;;512599;28;1369;-83
2022/04/03 00:10:40;;;;;;;9.00;8.00;;;;;;;;;;510422;28;1863;-83
2022/04/03 00:10:56;;;;;;;9.55;7.82;;;;;;;;;;508315;29;1430;-83
2022/04/03 00:11:11;;;;;;;9.53;7.53;;;;;;;;;;510157;29;1447;-83
2022/04/03 00:11:28;;;;;;;8.90;7.50;;;;;;;;;;510502;29;1470;-84
2022/04/03 00:11:43;;;;;;;8.65;7.45;;;;;;;;;;510503;29;1425;-83
2022/04/03 00:11:59;;;;;;;9.00;7.53;;;;;;;;;;510799;28;1498;-84
2022/04/03 00:12:14;;;;;;;9.40;8.00;;;;;;;;;;510971;28;1433;-84
2022/04/03 00:12:30;;;;;;;8.80;7.60;;;;;;;;;;510632;28;1588;-84
2022/04/03 00:12:46;;;;;;;8.53;7.60;;;;;;;;;;510900;28;1555;-83
2022/04/03 00:13:03;;;;;;;9.35;7.82;;;;;;;;;;513284;28;1554;-84
2022/04/03 00:13:20;;;;;;;9.63;7.63;;;;;;;;;;514204;28;1571;-83
2022/04/03 00:13:36;;;;;;;9.02;7.70;;;;;;;;;;514138;28;1556;-84
2022/04/03 00:13:52;;;;;;;9.43;7.82;;;;;;;;;;512051;28;1470;-84
2022/04/03 00:14:07;;;;;;;9.18;7.82;;;;;;;;;;509601;29;1478;-83
2022/04/03 00:14:23;;;;;;;8.60;7.40;;;;;;;;;;507949;29;1574;-84
2022/04/03 00:14:38;;;;;;;8.70;7.28;;;;;;;;;;508870;29;1560;-84
2022/04/03 00:14:54;;;;;;;8.50;7.53;;;;;;;;;;510240;29;1510;-84
2022/04/03 00:15:09;;;;;;;8.48;7.55;;;;;;;;;;509246;29;1534;-83
2022/04/03 00:15:25;;;;;;;9.25;7.40;;;;;;;;;;511327;28;1448;-83
2022/04/03 00:15:42;;;;;;;9.80;7.60;;;;;;;;;;509008;29;1531;-83
2022/04/03 00:15:57;;;;;;;9.10;7.60;;;;;;;;;;511712;28;1512;-84
2022/04/03 00:16:13;;;;;;;8.90;7.80;;;;;;;;;;511067;28;1485;-84
2022/04/03 00:16:29;;;;;;;8.83;7.63;;;;;;;;;;508916;29;1429;-84
2022/04/03 00:16:44;;;;;;;9.00;7.32;;;;;;;;;;508736;29;1451;-84
2022/04/03 00:17:00;;;;;;;9.88;7.70;;;;;;;;;;508110;29;1479;-84
2022/04/03 00:17:15;;;;;;;9.37;7.60;;;;;;;;;;510203;29;1485;-83
2022/04/03 00:17:31;;;;;;;8.40;7.13;;;;;;;;;;509916;29;1421;-83
2022/04/03 00:17:46;;;;;;;8.17;7.10;;;;;;;;;;512420;28;1716;-84
2022/04/03 00:18:02;;;;;;;8.70;7.60;;;;;;;;;;512296;28;1563;-84
2022/04/03 00:18:17;;;;;;;9.90;7.67;;;;;;;;;;512397;28;1740;-83
2022/04/03 00:18:33;;;;;;;8.98;7.47;;;;;;;;;;511767;28;1514;-84
2022/04/03 00:18:49;;;;;;;8.02;7.18;;;;;;;;;;512633;28;1449;-84
2022/04/03 00:19:05;;;;;;;8.27;7.10;;;;;;;;;;512475;28;1636;-84
2022/04/03 00:19:20;;;;;;;8.73;7.38;;;;;;;;;;512637;28;1403;-83
2022/04/03 00:19:35;;;;;;;8.80;7.63;;;;;;;;;;512484;28;1430;-84
2022/04/03 00:19:51;;;;;;;8.52;7.63;;;;;;;;;;512860;28;1565;-83
2022/04/03 00:20:08;;;;;;;9.27;7.70;;;;;;;;;;512638;28;1657;-84
2022/04/03 00:20:24;;;;;;;9.20;7.70;;;;;;;;;;509935;29;1665;-83
2022/04/03 00:20:40;;;;;;;8.33;7.43;;;;;;;;;;511394;28;1534;-84
2022/04/03 00:20:55;;;;;;;9.23;7.60;;;;;;;;;;512266;28;1572;-83
2022/04/03 00:21:13;;;;;;;9.73;7.77;;;;;;;;;;511177;28;1535;-84
2022/04/03 00:21:29;;;;;;;8.65;7.53;;;;;;;;;;513377;28;1471;-83
2022/04/03 00:21:44;;;;;;;8.27;7.43;;;;;;;;;;512558;28;1509;-84
2022/04/03 00:22:01;;;;;;;8.38;7.43;;;;;;;;;;508118;29;1411;-84
2022/04/03 00:22:16;;;;;;;8.18;7.30;;;;;;;;;;508149;29;1521;-83
2022/04/03 00:22:32;;;;;;;8.60;7.53;;;;;;;;;;510655;29;1417;-83
2022/04/03 00:22:52;;;;;;;8.97;7.67;;;;;;;;;;509695;29;1418;-84
2022/04/03 00:23:08;;;;;;;8.45;7.50;;;;;;;;;;509578;29;1443;-83
2022/04/03 00:23:24;;;;;;;8.80;7.90;;;;;;;;;;508003;29;1517;-83
2022/04/03 00:23:40;;;;;;;10.40;7.60;;;;;;;;;;508189;29;1473;-84
2022/04/03 00:23:55;;;;;;;10.10;6.93;;;;;;;;;;507950;29;1537;-84
2022/04/03 00:24:11;;;;;;;8.77;6.73;;;;;;;;;;508407;29;1442;-84
2022/04/03 00:24:27;;;;;;;8.40;6.95;;;;;;;;;;507546;29;1631;-83
2022/04/03 00:24:43;;;;;;;7.80;7.00;;;;;;;;;;507646;29;1392;-84
2022/04/03 00:24:59;;;;;;;7.53;6.60;;;;;;;;;;507981;29;1419;-84
2022/04/03 00:25:15;;;;;;;7.90;6.80;;;;;;;;;;507496;29;1473;-84
2022/04/03 00:25:31;;;;;;;8.30;6.80;;;;;;;;;;508105;29;1465;-83
2022/04/03 00:25:46;;;;;;;8.02;6.68;;;;;;;;;;508136;29;1602;-83
2022/04/03 00:26:02;;;;;;;7.53;6.73;;;;;;;;;;509286;29;1710;-84
2022/04/03 00:26:18;;;;;;;8.15;6.72;;;;;;;;;;511585;28;1648;-84
2022/04/03 00:26:33;;;;;;;8.13;6.85;;;;;;;;;;514127;28;1460;-84
2022/04/03 00:26:48;;;;;;;8.10;6.90;;;;;;;;;;511886;28;1576;-84
2022/04/03 00:27:04;;;;;;;8.10;6.63;;;;;;;;;;511987;28;1576;-84
2022/04/03 00:27:20;;;;;;;8.48;6.68;;;;;;;;;;510042;29;1463;-83
2022/04/03 00:27:35;;;;;;;9.13;6.72;;;;;;;;;;509995;29;1542;-84
2022/04/03 00:27:50;;;;;;;8.13;6.50;;;;;;;;;;508211;29;1558;-84
2022/04/03 00:28:06;;;;;;;10.50;6.70;;;;;;;;;;508617;29;1286;-83
2022/04/03 00:28:22;;;;;;;11.13;7.00;;;;;;;;;;510281;28;1536;-84
2022/04/03 00:28:37;;;;;;;7.90;6.70;;;;;;;;;;510428;29;1575;-84
2022/04/03 00:28:53;;;;;;;7.07;6.37;;;;;;;;;;510626;29;1445;-84
2022/04/03 00:29:09;;;;;;;6.90;6.20;;;;;;;;;;508585;29;1435;-83
2022/04/03 00:29:24;;;;;;;7.47;6.22;;;;;;;;;;509578;29;1520;-84
2022/04/03 00:29:40;;;;;;;8.30;6.40;;;;;;;;;;510148;29;1407;-84
2022/04/03 00:29:55;;;;;;;7.63;6.33;;;;;;;;;;510521;28;1434;-83
2022/04/03 00:30:11;;;;;;;7.72;6.60;;;;;;;;;;512062;28;1567;-83
2022/04/03 00:30:27;;;;;;;7.93;7.03;;;;;;;;;;511283;28;1349;-83
2022/04/03 00:30:42;;;;;;;8.03;7.20;;;;;;;;;;509952;28;1552;-83
2022/04/03 00:30:58;;;;;;;9.15;7.43;;;;;;;;;;508465;28;1386;-83
2022/04/03 00:31:14;;;;;;;9.00;7.37;;;;;;;;;;510863;28;1619;-83
2022/04/03 00:31:29;;;;;;;7.65;6.85;;;;;;;;;;512220;28;1385;-84
2022/04/03 00:31:45;;;;;;;7.27;6.40;;;;;;;;;;512402;28;1620;-84
2022/04/03 00:32:01;;;;;;;7.70;6.40;;;;;;;;;;510687;29;1422;-84
2022/04/03 00:32:17;;;;;;;8.80;6.68;;;;;;;;;;510590;28;1459;-83
2022/04/03 00:32:33;;;;;;;9.33;6.43;;;;;;;;;;508545;29;1451;-84
2022/04/03 00:32:48;;;;;;;8.45;6.18;;;;;;;;;;509771;29;1411;-83
2022/04/03 00:33:05;;;;;;;7.87;6.13;;;;;;;;;;509891;28;1550;-83
2022/04/03 00:33:21;;;;;;;8.63;6.68;;;;;;;;;;510513;28;1399;-84
2022/04/03 00:33:36;;;;;;;8.13;6.87;;;;;;;;;;511169;28;1772;-84
2022/04/03 00:33:52;;;;;;;8.10;6.38;;;;;;;;;;512743;28;1436;-84
2022/04/03 00:34:07;;;;;;;8.67;6.23;;;;;;;;;;514050;28;1865;-83
2022/04/03 00:34:23;;;;;;;8.88;6.47;;;;;;;;;;516070;28;1443;-83
2022/04/03 00:34:38;;;;;;;8.65;6.47;;;;;;;;;;515692;28;1763;-83
2022/04/03 00:34:54;;;;;;;7.30;6.13;;;;;;;;;;514151;28;1582;-84
2022/04/03 00:35:09;;;;;;;7.13;6.17;;;;;;;;;;511320;28;1452;-84
2022/04/03 00:35:25;;;;;;;7.13;6.22;;;;;;;;;;511553;28;1462;-84
2022/04/03 00:35:41;;;;;;;7.53;5.97;;;;;;;;;;510076;29;1505;-84
2022/04/03 00:35:56;;;;;;;7.80;6.20;;;;;;;;;;509744;29;1498;-84
2022/04/03 00:36:12;;;;;;;7.25;6.20;;;;;;;;;;509883;29;1411;-84
2022/04/03 00:36:27;;;;;;;8.67;6.27;;;;;;;;;;511304;28;1589;-84
2022/04/03 00:36:43;;;;;;;9.73;6.50;;;;;;;;;;512650;28;1470;-83
2022/04/03 00:36:58;;;;;;;9.90;6.30;;;;;;;;;;510379;28;1451;-84
2022/04/03 00:37:13;;;;;;;8.05;6.35;;;;;;;;;;510222;29;1449;-84
2022/04/03 00:37:29;;;;;;;8.80;6.30;;;;;;;;;;510381;29;1456;-83
2022/04/03 00:37:44;;;;;;;8.45;6.10;;;;;;;;;;513241;28;1512;-83
2022/04/03 00:38:00;;;;;;;7.70;5.97;;;;;;;;;;512589;28;1480;-83
2022/04/03 00:38:16;;;;;;;7.70;5.80;;;;;;;;;;513150;28;1571;-83
2022/04/03 00:38:32;;;;;;;6.75;5.72;;;;;;;;;;513361;28;1622;-83
2022/04/03 00:38:48;;;;;;;7.23;5.80;;;;;;;;;;514520;28;1442;-84
2022/04/03 00:39:04;;;;;;;8.73;6.07;;;;;;;;;;512357;28;1589;-84
2022/04/03 00:39:20;;;;;;;8.43;5.88;;;;;;;;;;510597;28;1442;-84
2022/04/03 00:39:36;;;;;;;7.15;5.57;;;;;;;;;;510757;28;1752;-84
2022/04/03 00:39:51;;;;;;;6.68;5.65;;;;;;;;;;510552;28;1380;-83
2022/04/03 00:40:08;;;;;;;7.10;6.10;;;;;;;;;;511079;28;1300;-83
2022/04/03 00:40:26;;;;;;;7.28;5.95;;;;;;;;;;510529;28;1617;-84
2022/04/03 00:40:44;;;;;;;6.93;5.57;;;;;;;;;;508499;29;1500;-84
2022/04/03 00:41:03;;;;;;;6.70;5.80;;;;;;;;;;510049;29;1432;-83
2022/04/03 00:41:22;;;;;;;7.40;6.15;;;;;;;;;;509684;29;1536;-84
2022/04/03 00:41:39;;;;;;;7.75;6.57;;;;;;;;;;510282;29;1469;-83
2022/04/03 00:41:54;;;;;;;7.93;6.70;;;;;;;;;;512936;28;1568;-83
2022/04/03 00:42:10;;;;;;;7.43;6.30;;;;;;;;;;510691;28;1769;-83
2022/04/03 00:42:26;;;;;;;7.13;6.30;;;;;;;;;;510667;28;1532;-84
2022/04/03 00:42:41;;;;;;;8.90;7.03;;;;;;;;;;510493;28;1446;-83
2022/04/03 00:42:57;;;;;;;9.77;7.30;;;;;;;;;;510407;28;1564;-83
2022/04/03 00:43:13;;;;;;;8.17;6.93;;;;;;;;;;511344;28;1522;-84
2022/04/03 00:43:29;;;;;;;7.93;6.78;;;;;;;;;;511672;28;1581;-83
2022/04/03 00:43:44;;;;;;;7.85;6.93;;;;;;;;;;511375;28;1446;-83
2022/04/03 00:44:00;;;;;;;8.27;7.00;;;;;;;;;;510121;29;1578;-84
2022/04/03 00:44:17;;;;;;;9.00;7.13;;;;;;;;;;510334;29;1414;-84
2022/04/03 00:44:35;;;;;;;8.18;7.10;;;;;;;;;;510629;28;1659;-83
2022/04/03 00:44:50;;;;;;;7.95;7.15;;;;;;;;;;509924;29;1474;-83
2022/04/03 00:45:07;;;;;;;7.90;7.10;;;;;;;;;;508052;29;1429;-83
2022/04/03 00:45:22;;;;;;;8.32;7.10;;;;;;;;;;507972;29;1947;-84
2022/04/03 00:45:43;;;;;;;8.43;7.10;;;;;;;;;;510584;29;1431;-83
2022/04/03 00:46:00;;;;;;;7.57;6.80;;;;;;;;;;512308;28;1421;-84
2022/04/03 00:46:19;;;;;;;7.93;7.10;;;;;;;;;;512226;28;1559;-84
2022/04/03 00:46:36;;;;;;;8.48;6.75;;;;;;;;;;512381;28;1585;-84
2022/04/03 00:46:51;;;;;;;7.32;6.53;;;;;;;;;;513784;28;1410;-83
2022/04/03 00:47:07;;;;;;;7.97;7.10;;;;;;;;;;513453;28;1468;-84
2022/04/03 00:47:23;;;;;;;8.60;7.15;;;;;;;;;;510626;28;1424;-83
2022/04/03 00:47:38;;;;;;;7.80;6.73;;;;;;;;;;508631;29;1465;-83
2022/04/03 00:47:56;;;;;;;8.15;7.07;;;;;;;;;;511305;28;1639;-83
2022/04/03 00:48:12;;;;;;;8.55;7.15;;;;;;;;;;514258;28;1430;-83
2022/04/03 00:48:27;;;;;;;8.15;6.80;;;;;;;;;;512031;28;1406;-83
2022/04/03 00:48:46;;;;;;;7.93;6.70;;;;;;;;;;511185;28;1525;-83
2022/04/03 00:49:02;;;;;;;8.35;7.00;;;;;;;;;;511258;28;1515;-84
2022/04/03 00:49:18;;;;;;;7.85;6.75;;;;;;;;;;511108;28;1457;-83
2022/04/03 00:49:34;;;;;;;7.50;6.53;;;;;;;;;;512277;28;1441;-83
2022/04/03 00:49:51;;;;;;;8.05;6.63;;;;;;;;;;512421;28;1559;-83
2022/04/03 00:50:06;;;;;;;7.97;6.57;;;;;;;;;;510775;28;1941;-84
2022/04/03 00:50:23;;;;;;;7.72;6.50;;;;;;;;;;511125;28;1609;-83
2022/04/03 00:50:39;;;;;;;7.90;6.50;;;;;;;;;;513734;28;1366;-83
2022/04/03 00:50:54;;;;;;;8.67;6.50;;;;;;;;;;512146;28;1775;-84
2022/04/03 00:51:11;;;;;;;8.40;6.63;;;;;;;;;;513184;28;1364;-84
2022/04/03 00:51:27;;;;;;;7.40;6.60;;;;;;;;;;512452;28;1656;-84
2022/04/03 00:51:43;;;;;;;7.70;6.65;;;;;;;;;;511864;28;1570;-83
2022/04/03 00:51:59;;;;;;;7.68;6.47;;;;;;;;;;513263;28;1383;-84
2022/04/03 00:52:14;;;;;;;8.45;6.35;;;;;;;;;;512027;28;1537;-83
2022/04/03 00:52:30;;;;;;;8.30;6.30;;;;;;;;;;513094;28;1412;-84
2022/04/03 00:52:45;;;;;;;7.13;6.33;;;;;;;;;;510015;29;1532;-83
2022/04/03 00:53:00;;;;;;;7.68;6.43;;;;;;;;;;510534;29;1429;-84
2022/04/03 00:53:16;;;;;;;7.83;6.17;;;;;;;;;;508010;29;1874;-83
2022/04/03 00:53:32;;;;;;;7.35;6.10;;;;;;;;;;508085;29;1399;-83
2022/04/03 00:53:47;;;;;;;8.05;6.18;;;;;;;;;;510003;29;1808;-84
2022/04/03 00:54:03;;;;;;;7.83;6.00;;;;;;;;;;507641;29;1427;-83
2022/04/03 00:54:18;;;;;;;6.63;5.90;;;;;;;;;;510674;29;1843;-83
2022/04/03 00:54:34;;;;;;;6.80;6.00;;;;;;;;;;512173;28;1454;-84
2022/04/03 00:54:51;;;;;;;6.93;6.05;;;;;;;;;;510075;29;1567;-83
2022/04/03 00:55:06;;;;;;;9.00;6.10;;;;;;;;;;507676;29;1577;-83
2022/04/03 00:55:22;;;;;;;9.93;6.10;;;;;;;;;;508524;29;1406;-84
2022/04/03 00:55:42;;;;;;;7.90;5.90;;;;;;;;;;508198;29;1466;-83
2022/04/03 00:55:58;;;;;;;7.53;6.00;;;;;;;;;;506400;29;1499;-83
2022/04/03 00:56:14;;;;;;;8.00;6.10;;;;;;;;;;507305;29;1513;-84
2022/04/03 00:56:31;;;;;;;8.05;6.18;;;;;;;;;;509789;29;1494;-84
2022/04/03 00:56:47;;;;;;;8.45;6.50;;;;;;;;;;509461;29;1538;-83
2022/04/03 00:57:05;;;;;;;8.47;6.30;;;;;;;;;;511292;28;1425;-84
2022/04/03 00:57:22;;;;;;;8.02;5.93;;;;;;;;;;511956;28;1417;-84
2022/04/03 00:57:38;;;;;;;8.07;5.88;;;;;;;;;;512353;28;1634;-83
2022/04/03 00:57:53;;;;;;;7.00;5.72;;;;;;;;;;511838;28;1306;-84
2022/04/03 00:58:12;;;;;;;6.67;5.90;;;;;;;;;;512625;28;1565;-84
2022/04/03 00:58:28;;;;;;;7.43;6.05;;;;;;;;;;509937;29;1400;-84
2022/04/03 00:58:43;;;;;;;8.40;6.10;;;;;;;;;;510761;29;1426;-84
2022/04/03 00:58:59;;;;;;;8.20;5.87;;;;;;;;;;510233;29;1433;-83
2022/04/03 00:59:15;;;;;;;7.25;5.60;;;;;;;;;;508862;29;1497;-84
2022/04/03 00:59:30;;;;;;;7.93;5.63;;;;;;;;;;509933;29;1447;-83
2022/04/03 00:59:47;;;;;;;9.48;6.15;;;;;;;;;;511278;28;1640;-84
2022/04/03 01:00:04;;;;;;;8.27;6.10;;;;;;;;;;512062;28;1480;-84
2022/04/03 01:00:19;;;;;;;7.80;5.78;;;;;;;;;;511279;28;1717;-84
2022/04/03 01:00:35;;;;;;;7.20;5.82;;;;;;;;;;511018;28;1592;-83
2022/04/03 01:00:50;;;;;;;7.27;6.10;;;;;;;;;;511603;28;1616;-84
2022/04/03 01:01:06;;;;;;;7.22;5.97;;;;;;;;;;510843;28;1567;-83
2022/04/03 01:01:21;;;;;;;6.70;5.77;;;;;;;;;;510291;29;1427;-84
2022/04/03 01:01:40;;;;;;;7.07;5.80;;;;;;;;;;508371;29;1542;-83
2022/04/03 01:01:55;;;;;;;6.97;5.90;;;;;;;;;;508720;29;1545;-83
2022/04/03 01:02:11;;;;;;;7.03;5.75;;;;;;;;;;508969;29;1788;-83
2022/04/03 01:02:27;;;;;;;6.87;5.80;;;;;;;;;;508954;29;1541;-84
2022/04/03 01:02:43;;;;;;;6.90;5.90;;;;;;;;;;509154;29;1566;-83
2022/04/03 01:03:01;;;;;;;7.15;5.95;;;;;;;;;;506841;29;1595;-83
2022/04/03 01:03:16;;;;;;;7.57;6.10;;;;;;;;;;508467;29;1445;-84
2022/04/03 01:03:31;;;;;;;7.38;6.05;;;;;;;;;;510120;29;1457;-84
2022/04/03 01:03:48;;;;;;;8.00;5.87;;;;;;;;;;509491;29;1560;-84
2022/04/03 01:04:03;;;;;;;7.68;5.75;;;;;;;;;;509049;29;1538;-83
2022/04/03 01:04:19;;;;;;;7.10;6.00;;;;;;;;;;510686;28;1457;-84
2022/04/03 01:04:37;;;;;;;7.60;6.38;;;;;;;;;;512213;28;1495;-83
2022/04/03 01:04:52;;;;;;;7.35;6.07;;;;;;;;;;511777;28;1518;-83
2022/04/03 01:05:08;;;;;;;7.33;5.97;;;;;;;;;;513215;28;1539;-84
2022/04/03 01:05:24;;;;;;;7.40;6.22;;;;;;;;;;511956;28;1918;-84
2022/04/03 01:05:40;;;;;;;8.00;6.28;;;;;;;;;;512201;28;1484;-84
2022/04/03 01:05:57;;;;;;;8.05;6.35;;;;;;;;;;511393;28;1392;-84
2022/04/03 01:06:13;;;;;;;7.40;6.10;;;;;;;;;;511032;28;1385;-84
2022/04/03 01:06:28;;;;;;;7.18;5.90;;;;;;;;;;511054;28;1524;-83
2022/04/03 01:06:43;;;;;;;7.53;6.23;;;;;;;;;;511544;28;1336;-83
2022/04/03 01:06:59;;;;;;;7.53;6.20;;;;;;;;;;512339;28;1525;-83
2022/04/03 01:07:14;;;;;;;7.22;6.07;;;;;;;;;;510679;28;1454;-84
2022/04/03 01:07:30;;;;;;;7.10;5.90;;;;;;;;;;511152;29;1654;-83
2022/04/03 01:07:46;;;;;;;7.05;5.88;;;;;;;;;;511235;28;1542;-84
2022/04/03 01:08:03;;;;;;;7.03;5.85;;;;;;;;;;510440;29;1700;-84
2022/04/03 01:08:18;;;;;;;7.38;5.70;;;;;;;;;;509199;29;1444;-84
2022/04/03 01:08:34;;;;;;;7.27;5.80;;;;;;;;;;511105;28;1620;-84
2022/04/03 01:08:49;;;;;;;7.05;5.90;;;;;;;;;;512519;28;1443;-83
2022/04/03 01:09:05;;;;;;;7.30;6.10;;;;;;;;;;510881;29;1446;-84
2022/04/03 01:09:20;;;;;;;7.25;6.10;;;;;;;;;;511112;28;1732;-84
2022/04/03 01:09:36;;;;;;;6.93;6.00;;;;;;;;;;512544;28;2041;-84
2022/04/03 01:09:52;;;;;;;6.93;5.97;;;;;;;;;;511062;28;1604;-84
2022/04/03 01:10:08;;;;;;;7.03;6.00;;;;;;;;;;510450;28;1498;-84
2022/04/03 01:10:23;;;;;;;7.85;6.00;;;;;;;;;;511750;28;1572;-83
2022/04/03 01:10:40;;;;;;;8.70;5.90;;;;;;;;;;509594;29;1545;-83
2022/04/03 01:10:55;;;;;;;8.80;5.90;;;;;;;;;;508586;29;1523;-83
2022/04/03 01:11:20;;;;;;;8.82;6.03;;;;;;;;;;508895;29;1382;-83
2022/04/03 01:11:38;;;;;;;8.73;6.30;;;;;;;;;;509332;28;1581;-83
2022/04/03 01:11:53;;;;;;;7.28;6.25;;;;;;;;;;508749;29;1348;-83
2022/04/03 01:12:10;;;;;;;7.60;6.30;;;;;;;;;;508644;29;1752;-83
2022/04/03 01:12:26;;;;;;;7.75;6.15;;;;;;;;;;508035;29;1450;-83
2022/04/03 01:12:45;;;;;;;7.50;6.10;;;;;;;;;;510658;29;1394;-84
2022/04/03 01:13:00;;;;;;;7.00;6.20;;;;;;;;;;511460;28;1402;-83
2022/04/03 01:13:16;;;;;;;7.03;6.03;;;;;;;;;;512679;28;1545;-83
2022/04/03 01:13:31;;;;;;;7.60;5.93;;;;;;;;;;512778;28;1543;-83
2022/04/03 01:13:48;;;;;;;7.23;5.80;;;;;;;;;;511210;28;1521;-83
2022/04/03 01:14:05;;;;;;;7.55;5.70;;;;;;;;;;512359;28;1962;-84
2022/04/03 01:14:37;;;;;;;8.52;5.95;;;;;;;;;;512388;28;1388;-84
2022/04/03 01:14:53;;;;;;;7.60;6.05;;;;;;;;;;514430;28;1488;-83
2022/04/03 01:15:09;;;;;;;8.75;6.10;;;;;;;;;;514585;28;1518;-83
2022/04/03 01:15:24;;;;;;;8.77;5.80;;;;;;;;;;512359;28;1645;-84
2022/04/03 01:15:39;;;;;;;8.57;5.60;;;;;;;;;;513485;28;1525;-83
2022/04/03 01:16:00;;;;;;;7.67;5.70;;;;;;;;;;512114;28;1571;-84
2022/04/03 01:16:16;;;;;;;7.00;5.80;;;;;;;;;;511599;28;1456;-83
2022/04/03 01:16:33;;;;;;;7.07;5.78;;;;;;;;;;512035;28;1484;-84
2022/04/03 01:16:48;;;;;;;7.85;5.90;;;;;;;;;;509956;29;1748;-84
2022/04/03 01:17:05;;;;;;;7.40;6.00;;;;;;;;;;511461;28;1390;-83
2022/04/03 01:17:20;;;;;;;7.22;6.00;;;;;;;;;;513172;28;1505;-83
2022/04/03 01:17:36;;;;;;;8.37;6.17;;;;;;;;;;512046;28;1524;-83
2022/04/03 01:17:51;;;;;;;8.20;6.17;;;;;;;;;;514080;28;1509;-83
2022/04/03 01:18:06;;;;;;;8.02;5.95;;;;;;;;;;514156;28;1453;-83
2022/04/03 01:18:29;;;;;;;8.57;5.90;;;;;;;;;;512141;28;1584;-83
2022/04/03 01:18:45;;;;;;;8.38;6.20;;;;;;;;;;509935;29;1367;-85
2022/04/03 01:19:01;;;;;;;7.68;5.95;;;;;;;;;;508070;29;1278;-84
2022/04/03 01:19:16;;;;;;;7.75;5.80;;;;;;;;;;507816;29;1633;-85
2022/04/03 01:19:32;;;;;;;7.73;5.83;;;;;;;;;;507970;29;1271;-85
2022/04/03 01:19:48;;;;;;;8.00;5.78;;;;;;;;;;506385;29;1606;-84
2022/04/03 01:20:04;;;;;;;8.57;5.80;;;;;;;;;;508398;29;1514;-85
2022/04/03 01:20:19;;;;;;;8.75;6.07;;;;;;;;;;510551;29;1461;-85
2022/04/03 01:20:35;;;;;;;8.00;6.10;;;;;;;;;;511918;28;1610;-84
2022/04/03 01:20:52;;;;;;;7.15;5.68;;;;;;;;;;512532;28;1485;-84
2022/04/03 01:21:08;;;;;;;6.43;5.50;;;;;;;;;;514007;28;1253;-84
2022/04/03 01:21:24;;;;;;;7.50;5.88;;;;;;;;;;509984;29;1702;-85
2022/04/03 01:21:39;;;;;;;7.40;5.60;;;;;;;;;;510749;29;1346;-85
2022/04/03 01:21:54;;;;;;;6.83;5.50;;;;;;;;;;510527;29;1256;-85
2022/04/03 01:22:11;;;;;;;7.13;5.45;;;;;;;;;;510832;29;1567;-85
2022/04/03 01:22:27;;;;;;;7.25;5.35;;;;;;;;;;509365;29;1251;-84
2022/04/03 01:22:42;;;;;;;7.00;5.40;;;;;;;;;;512018;29;783;-85
2022/04/03 01:22:58;;;;;;;6.80;5.47;;;;;;;;;;512207;28;1370;-84
2022/04/03 01:23:15;;;;;;;7.00;5.70;;;;;;;;;;514469;28;870;-85
2022/04/03 01:23:31;;;;;;;10.15;5.90;;;;;;;;;;514060;28;1587;-85
2022/04/03 01:23:46;;;;;;;9.57;5.75;;;;;;;;;;514623;28;1519;-85
2022/04/03 01:24:03;;;;;;;6.25;5.40;;;;;;;;;;513733;28;1538;-85
2022/04/03 01:24:23;;;;;;;6.47;5.50;;;;;;;;;;514895;28;1438;-85
2022/04/03 01:24:43;;;;;;;6.20;5.40;;;;;;;;;;513715;28;1306;-85
2022/04/03 01:25:00;;;;;;;7.13;5.45;;;;;;;;;;515678;28;1036;-85
2022/04/03 01:25:15;;;;;;;7.40;5.68;;;;;;;;;;515927;28;917;-85
2022/04/03 01:25:31;;;;;;;6.43;5.47;;;;;;;;;;513512;28;1965;-85
2022/04/03 01:25:46;;;;;;;6.20;5.20;;;;;;;;;;514097;28;1059;-85
2022/04/03 01:26:02;;;;;;;6.93;5.50;;;;;;;;;;515661;28;1330;-85
2022/04/03 01:26:18;;;;;;;7.53;5.75;;;;;;;;;;513719;28;1582;-85
2022/04/03 01:26:35;;;;;;;7.23;5.50;;;;;;;;;;514920;28;1165;-85
2022/04/03 01:26:52;;;;;;;6.78;5.30;;;;;;;;;;515693;28;993;-85
2022/04/03 01:27:08;;;;;;;6.68;5.40;;;;;;;;;;513706;28;1256;-85
2022/04/03 01:27:24;;;;;;;6.67;5.47;;;;;;;;;;511783;29;1290;-84
2022/04/03 01:27:39;;;;;;;6.65;5.57;;;;;;;;;;511636;29;1522;-85
2022/04/03 01:27:55;;;;;;;7.17;5.67;;;;;;;;;;511542;29;1652;-85
2022/04/03 01:28:10;;;;;;;7.25;5.50;;;;;;;;;;510890;28;1681;-85
2022/04/03 01:28:26;;;;;;;6.80;5.47;;;;;;;;;;512225;28;1444;-85
2022/04/03 01:28:43;;;;;;;6.72;5.60;;;;;;;;;;513589;28;1702;-85
2022/04/03 01:28:58;;;;;;;6.90;5.72;;;;;;;;;;514273;28;1570;-84
2022/04/03 01:29:16;;;;;;;6.90;5.63;;;;;;;;;;514012;28;1551;-85
2022/04/03 01:29:31;;;;;;;6.63;5.47;;;;;;;;;;511690;28;1303;-84
2022/04/03 01:29:48;;;;;;;6.63;5.60;;;;;;;;;;513319;28;1461;-85
2022/04/03 01:30:05;;;;;;;9.18;5.70;;;;;;;;;;513864;28;905;-85
2022/04/03 01:30:20;;;;;;;8.80;5.50;;;;;;;;;;515225;28;1245;-85
2022/04/03 01:30:36;;;;;;;5.77;5.10;;;;;;;;;;512816;28;1384;-85
2022/04/03 01:30:51;;;;;;;7.35;5.28;;;;;;;;;;513434;28;1377;-85
2022/04/03 01:31:08;;;;;;;7.57;5.57;;;;;;;;;;514523;28;1304;-85
2022/04/03 01:31:23;;;;;;;6.75;5.40;;;;;;;;;;516541;28;1618;-84
2022/04/03 01:31:39;;;;;;;7.20;5.30;;;;;;;;;;515373;28;1664;-85
2022/04/03 01:31:54;;;;;;;7.57;5.40;;;;;;;;;;514619;28;1638;-85
2022/04/03 01:32:10;;;;;;;6.90;5.40;;;;;;;;;;512121;28;1496;-85
2022/04/03 01:32:25;;;;;;;7.38;5.45;;;;;;;;;;513650;28;1482;-85
2022/04/03 01:32:41;;;;;;;7.77;5.50;;;;;;;;;;513130;28;1559;-85
2022/04/03 01:32:56;;;;;;;7.25;5.50;;;;;;;;;;513083;28;2418;-85
2022/04/03 01:33:11;;;;;;;8.67;5.67;;;;;;;;;;510037;29;1492;-85
2022/04/03 01:33:27;;;;;;;8.98;5.63;;;;;;;;;;508056;29;1486;-85
2022/04/03 01:33:43;;;;;;;6.73;5.60;;;;;;;;;;511156;29;1572;-85
2022/04/03 01:33:59;;;;;;;6.32;5.55;;;;;;;;;;511412;29;1475;-85
2022/04/03 01:34:15;;;;;;;6.60;5.63;;;;;;;;;;511540;29;1392;-85
2022/04/03 01:34:30;;;;;;;7.05;5.57;;;;;;;;;;513637;28;1890;-86
2022/04/03 01:34:46;;;;;;;7.60;5.57;;;;;;;;;;515502;28;1470;-86
2022/04/03 01:35:03;;;;;;;7.60;5.60;;;;;;;;;;513390;28;1508;-85
2022/04/03 01:35:18;;;;;;;7.07;5.68;;;;;;;;;;512502;28;1386;-85
2022/04/03 01:35:34;;;;;;;7.50;5.53;;;;;;;;;;512654;28;1324;-85
2022/04/03 01:35:49;;;;;;;7.17;5.33;;;;;;;;;;511998;29;942;-85
2022/04/03 01:36:05;;;;;;;6.28;5.28;;;;;;;;;;513241;28;1546;-85
2022/04/03 01:36:21;;;;;;;6.67;5.23;;;;;;;;;;513605;28;1434;-85
2022/04/03 01:36:37;;;;;;;6.38;5.20;;;;;;;;;;511518;29;1501;-84
2022/04/03 01:36:54;;;;;;;7.00;5.40;;;;;;;;;;511761;29;1519;-85
2022/04/03 01:37:09;;;;;;;6.85;5.35;;;;;;;;;;513931;28;1296;-84
2022/04/03 01:37:25;;;;;;;6.17;5.17;;;;;;;;;;512399;28;1563;-85
2022/04/03 01:37:42;;;;;;;6.63;5.37;;;;;;;;;;512797;28;1515;-85
2022/04/03 01:37:58;;;;;;;7.18;5.40;;;;;;;;;;511279;29;1460;-85
2022/04/03 01:38:13;;;;;;;7.17;5.20;;;;;;;;;;510878;29;1309;-85
2022/04/03 01:38:29;;;;;;;7.00;5.30;;;;;;;;;;510812;29;1210;-85
2022/04/03 01:38:45;;;;;;;7.45;5.47;;;;;;;;;;513338;28;1436;-85
2022/04/03 01:39:01;;;;;;;7.40;5.50;;;;;;;;;;515982;28;1243;-84
2022/04/03 01:39:18;;;;;;;6.80;5.57;;;;;;;;;;515494;28;1587;-85